<?xml version='1.0' encoding='UTF-8' standalone='yes' ?>
<gpx xmlns="http://www.topografix.com/GPX/1/1" xmlns:geotracker="http://ilyabogdanovich.com/gpx/extensions/geotracker" xmlns:xsi="http://www.w3.org/2001/XMLSchema-instance" xsi:schemaLocation="http://www.topografix.com/GPX/1/1 http://www.topografix.com/GPX/1/1/gpx.xsd" version="1.1" creator="Записано в Геотрекере для Android от Ильи Богдановича">
  <metadata>
    <name>12447 26.04.2026 Костылев</name>
    <author>
      <name>Записано в Геотрекере для Android от Ильи Богдановича</name>
      <link href="https://play.google.com/store/apps/details?id=com.ilyabogdanovich.geotracker" />
    </author>
    <link href="https://play.google.com/store/apps/details?id=com.ilyabogdanovich.geotracker" />
    <time>2026-04-26T09:16:25Z</time>
  </metadata>
  <wpt lat="59.054865" lon="29.96249333">
    <ele>83.7</ele>
    <time>2026-04-26T09:16:42Z</time>
    <name>Остановка на ~3 мин</name>
    <desc>Высота: 84 м
Время от начала: 00:00:16
Расстояние от начала: 11 м</desc>
    <extensions>
      <geotracker:meta visited="1" />
    </extensions>
  </wpt>
  <wpt lat="59.04169667" lon="29.96999333">
    <ele>93.3</ele>
    <time>2026-04-26T10:26:28Z</time>
    <name>Остановка на ~2 мин</name>
    <desc>Высота: 93 м
Время от начала: 01:10:02
Расстояние от начала: 3,48 км</desc>
    <extensions>
      <geotracker:meta visited="1" />
    </extensions>
  </wpt>
  <wpt lat="59.054925" lon="29.96252167">
    <ele>97.8</ele>
    <time>2026-04-26T11:13:12Z</time>
    <name>Остановка на ~4 мин</name>
    <desc>Высота: 98 м
Время от начала: 01:56:46
Расстояние от начала: 5,91 км</desc>
    <extensions>
      <geotracker:meta visited="1" />
    </extensions>
  </wpt>
  <trk>
    <name>12447 26.04.2026 Костылев</name>
    <src>Записано в Геотрекере для Android от Ильи Богдановича</src>
    <link href="https://play.google.com/store/apps/details?id=com.ilyabogdanovich.geotracker" />
    <extensions>
      <geotracker:meta>
        <geotracker:length>5916.98</geotracker:length>
        <geotracker:duration>7225576</geotracker:duration>
        <geotracker:creationtime>2026-04-26T09:16:25Z</geotracker:creationtime>
        <geotracker:activity>0</geotracker:activity>
      </geotracker:meta>
    </extensions>
    <trkseg>
      <trkpt lat="59.054895" lon="29.96267167">
        <ele>83.2</ele>
        <time>2026-04-26T09:16:31Z</time>
      </trkpt>
      <trkpt lat="59.054865" lon="29.96249333">
        <ele>83.7</ele>
        <time>2026-04-26T09:16:42Z</time>
      </trkpt>
      <trkpt lat="59.05492833" lon="29.96248">
        <ele>88.7</ele>
        <time>2026-04-26T09:20:04Z</time>
      </trkpt>
      <trkpt lat="59.05487833" lon="29.96232333">
        <ele>86.8</ele>
        <time>2026-04-26T09:20:14Z</time>
      </trkpt>
      <trkpt lat="59.054805" lon="29.96222167">
        <ele>89.7</ele>
        <time>2026-04-26T09:20:32Z</time>
      </trkpt>
      <trkpt lat="59.05471333" lon="29.96221833">
        <ele>91</ele>
        <time>2026-04-26T09:20:53Z</time>
      </trkpt>
      <trkpt lat="59.05461833" lon="29.96217167">
        <ele>90.7</ele>
        <time>2026-04-26T09:21:02Z</time>
      </trkpt>
      <trkpt lat="59.05452167" lon="29.96214">
        <ele>91.3</ele>
        <time>2026-04-26T09:21:11Z</time>
      </trkpt>
      <trkpt lat="59.05442833" lon="29.96208667">
        <ele>91.6</ele>
        <time>2026-04-26T09:21:20Z</time>
      </trkpt>
      <trkpt lat="59.05433167" lon="29.96204167">
        <ele>92.3</ele>
        <time>2026-04-26T09:21:31Z</time>
      </trkpt>
      <trkpt lat="59.05423833" lon="29.962">
        <ele>91.5</ele>
        <time>2026-04-26T09:21:40Z</time>
      </trkpt>
      <trkpt lat="59.054125" lon="29.96198833">
        <ele>88.5</ele>
        <time>2026-04-26T09:21:46Z</time>
      </trkpt>
      <trkpt lat="59.05403167" lon="29.96198667">
        <ele>88.3</ele>
        <time>2026-04-26T09:21:51Z</time>
      </trkpt>
      <trkpt lat="59.05394833" lon="29.96188667">
        <ele>88.1</ele>
        <time>2026-04-26T09:22:03Z</time>
      </trkpt>
      <trkpt lat="59.05386" lon="29.96181167">
        <ele>86.7</ele>
        <time>2026-04-26T09:22:17Z</time>
      </trkpt>
      <trkpt lat="59.05375667" lon="29.96180833">
        <ele>85.6</ele>
        <time>2026-04-26T09:22:26Z</time>
      </trkpt>
      <trkpt lat="59.05365833" lon="29.96179833">
        <ele>85</ele>
        <time>2026-04-26T09:22:33Z</time>
      </trkpt>
      <trkpt lat="59.05356833" lon="29.96174833">
        <ele>85.4</ele>
        <time>2026-04-26T09:22:39Z</time>
      </trkpt>
      <trkpt lat="59.053475" lon="29.96171167">
        <ele>85.5</ele>
        <time>2026-04-26T09:22:44Z</time>
      </trkpt>
      <trkpt lat="59.05337" lon="29.96166167">
        <ele>86.3</ele>
        <time>2026-04-26T09:22:50Z</time>
      </trkpt>
      <trkpt lat="59.05327333" lon="29.961615">
        <ele>85.3</ele>
        <time>2026-04-26T09:23:05Z</time>
      </trkpt>
      <trkpt lat="59.05317833" lon="29.96159">
        <ele>82.8</ele>
        <time>2026-04-26T09:23:14Z</time>
      </trkpt>
      <trkpt lat="59.05307833" lon="29.96156167">
        <ele>81.2</ele>
        <time>2026-04-26T09:23:20Z</time>
      </trkpt>
      <trkpt lat="59.05298667" lon="29.96159167">
        <ele>82.5</ele>
        <time>2026-04-26T09:23:29Z</time>
      </trkpt>
      <trkpt lat="59.05290167" lon="29.961535">
        <ele>83.5</ele>
        <time>2026-04-26T09:23:34Z</time>
      </trkpt>
      <trkpt lat="59.05281333" lon="29.96150333">
        <ele>85.2</ele>
        <time>2026-04-26T09:23:46Z</time>
      </trkpt>
      <trkpt lat="59.05270833" lon="29.96145667">
        <ele>85.1</ele>
        <time>2026-04-26T09:24:01Z</time>
      </trkpt>
      <trkpt lat="59.05261833" lon="29.96143333">
        <ele>84.9</ele>
        <time>2026-04-26T09:24:10Z</time>
      </trkpt>
      <trkpt lat="59.05252833" lon="29.96140167">
        <ele>84.8</ele>
        <time>2026-04-26T09:24:15Z</time>
      </trkpt>
      <trkpt lat="59.05243" lon="29.96139333">
        <ele>85.3</ele>
        <time>2026-04-26T09:24:21Z</time>
      </trkpt>
      <trkpt lat="59.05233167" lon="29.96136667">
        <ele>85.9</ele>
        <time>2026-04-26T09:24:32Z</time>
      </trkpt>
      <trkpt lat="59.05224" lon="29.96133167">
        <ele>85.8</ele>
        <time>2026-04-26T09:24:40Z</time>
      </trkpt>
      <trkpt lat="59.052155" lon="29.96127167">
        <ele>87.3</ele>
        <time>2026-04-26T09:24:46Z</time>
      </trkpt>
      <trkpt lat="59.052065" lon="29.961215">
        <ele>87</ele>
        <time>2026-04-26T09:24:54Z</time>
      </trkpt>
      <trkpt lat="59.051965" lon="29.96128">
        <ele>89.7</ele>
        <time>2026-04-26T09:25:05Z</time>
      </trkpt>
      <trkpt lat="59.05187333" lon="29.96128667">
        <ele>88.8</ele>
        <time>2026-04-26T09:25:20Z</time>
      </trkpt>
      <trkpt lat="59.05179" lon="29.96116833">
        <ele>86.6</ele>
        <time>2026-04-26T09:25:40Z</time>
      </trkpt>
      <trkpt lat="59.051695" lon="29.96116">
        <ele>87.4</ele>
        <time>2026-04-26T09:25:44Z</time>
      </trkpt>
      <trkpt lat="59.051605" lon="29.96113333">
        <ele>87.3</ele>
        <time>2026-04-26T09:25:49Z</time>
      </trkpt>
      <trkpt lat="59.05151" lon="29.96109">
        <ele>86.7</ele>
        <time>2026-04-26T09:25:58Z</time>
      </trkpt>
      <trkpt lat="59.05141667" lon="29.96111833">
        <ele>85.8</ele>
        <time>2026-04-26T09:26:08Z</time>
      </trkpt>
      <trkpt lat="59.05132667" lon="29.96111">
        <ele>85.1</ele>
        <time>2026-04-26T09:26:16Z</time>
      </trkpt>
      <trkpt lat="59.051225" lon="29.96107833">
        <ele>85.9</ele>
        <time>2026-04-26T09:26:23Z</time>
      </trkpt>
      <trkpt lat="59.051125" lon="29.96102167">
        <ele>86.8</ele>
        <time>2026-04-26T09:26:30Z</time>
      </trkpt>
      <trkpt lat="59.05103167" lon="29.96097">
        <ele>86.4</ele>
        <time>2026-04-26T09:26:39Z</time>
      </trkpt>
      <trkpt lat="59.05094" lon="29.960955">
        <ele>85.6</ele>
        <time>2026-04-26T09:26:47Z</time>
      </trkpt>
      <trkpt lat="59.05084667" lon="29.960905">
        <ele>83.9</ele>
        <time>2026-04-26T09:27:01Z</time>
      </trkpt>
      <trkpt lat="59.05075333" lon="29.96093667">
        <ele>83.2</ele>
        <time>2026-04-26T09:27:09Z</time>
      </trkpt>
      <trkpt lat="59.05066333" lon="29.96090833">
        <ele>82.5</ele>
        <time>2026-04-26T09:27:26Z</time>
      </trkpt>
      <trkpt lat="59.05057" lon="29.96090333">
        <ele>83.7</ele>
        <time>2026-04-26T09:27:34Z</time>
      </trkpt>
      <trkpt lat="59.050475" lon="29.96088833">
        <ele>83.6</ele>
        <time>2026-04-26T09:27:41Z</time>
      </trkpt>
      <trkpt lat="59.05038" lon="29.96091167">
        <ele>85.5</ele>
        <time>2026-04-26T09:27:47Z</time>
      </trkpt>
      <trkpt lat="59.05028333" lon="29.960855">
        <ele>91</ele>
        <time>2026-04-26T09:27:57Z</time>
      </trkpt>
      <trkpt lat="59.05018333" lon="29.96081333">
        <ele>89.5</ele>
        <time>2026-04-26T09:28:09Z</time>
      </trkpt>
      <trkpt lat="59.05010167" lon="29.96092167">
        <ele>88.8</ele>
        <time>2026-04-26T09:28:24Z</time>
      </trkpt>
      <trkpt lat="59.05" lon="29.96091667">
        <ele>87.4</ele>
        <time>2026-04-26T09:28:32Z</time>
      </trkpt>
      <trkpt lat="59.0499" lon="29.96085167">
        <ele>88.5</ele>
        <time>2026-04-26T09:28:40Z</time>
      </trkpt>
      <trkpt lat="59.049815" lon="29.96079167">
        <ele>88.5</ele>
        <time>2026-04-26T09:28:52Z</time>
      </trkpt>
      <trkpt lat="59.04973333" lon="29.96070167">
        <ele>86.8</ele>
        <time>2026-04-26T09:29:07Z</time>
      </trkpt>
      <trkpt lat="59.04963333" lon="29.96067167">
        <ele>85</ele>
        <time>2026-04-26T09:29:15Z</time>
      </trkpt>
      <trkpt lat="59.04953333" lon="29.96069">
        <ele>86.7</ele>
        <time>2026-04-26T09:29:33Z</time>
      </trkpt>
      <trkpt lat="59.04943833" lon="29.96067">
        <ele>89.3</ele>
        <time>2026-04-26T09:29:47Z</time>
      </trkpt>
      <trkpt lat="59.04933667" lon="29.96064833">
        <ele>89.7</ele>
        <time>2026-04-26T09:29:53Z</time>
      </trkpt>
      <trkpt lat="59.04924333" lon="29.96060667">
        <ele>88.2</ele>
        <time>2026-04-26T09:30:01Z</time>
      </trkpt>
      <trkpt lat="59.049145" lon="29.96058667">
        <ele>86.8</ele>
        <time>2026-04-26T09:30:11Z</time>
      </trkpt>
      <trkpt lat="59.04906333" lon="29.96049333">
        <ele>86.6</ele>
        <time>2026-04-26T09:30:19Z</time>
      </trkpt>
      <trkpt lat="59.04896833" lon="29.96043833">
        <ele>86.7</ele>
        <time>2026-04-26T09:30:28Z</time>
      </trkpt>
      <trkpt lat="59.04886667" lon="29.960385">
        <ele>85.2</ele>
        <time>2026-04-26T09:30:39Z</time>
      </trkpt>
      <trkpt lat="59.04877167" lon="29.96036667">
        <ele>84.1</ele>
        <time>2026-04-26T09:30:44Z</time>
      </trkpt>
      <trkpt lat="59.04868" lon="29.96030167">
        <ele>81.9</ele>
        <time>2026-04-26T09:30:53Z</time>
      </trkpt>
      <trkpt lat="59.04859333" lon="29.96020833">
        <ele>83.5</ele>
        <time>2026-04-26T09:31:02Z</time>
      </trkpt>
      <trkpt lat="59.04850167" lon="29.960145">
        <ele>82.9</ele>
        <time>2026-04-26T09:31:12Z</time>
      </trkpt>
      <trkpt lat="59.048405" lon="29.96007333">
        <ele>84.9</ele>
        <time>2026-04-26T09:31:22Z</time>
      </trkpt>
      <trkpt lat="59.04830667" lon="29.96004167">
        <ele>86.7</ele>
        <time>2026-04-26T09:31:30Z</time>
      </trkpt>
      <trkpt lat="59.04821333" lon="29.96003167">
        <ele>86.9</ele>
        <time>2026-04-26T09:31:38Z</time>
      </trkpt>
      <trkpt lat="59.048115" lon="29.96">
        <ele>86.8</ele>
        <time>2026-04-26T09:31:55Z</time>
      </trkpt>
      <trkpt lat="59.04801667" lon="29.95996167">
        <ele>87.5</ele>
        <time>2026-04-26T09:32:02Z</time>
      </trkpt>
      <trkpt lat="59.047915" lon="29.95995833">
        <ele>89</ele>
        <time>2026-04-26T09:32:13Z</time>
      </trkpt>
      <trkpt lat="59.04783167" lon="29.95988">
        <ele>90.7</ele>
        <time>2026-04-26T09:32:21Z</time>
      </trkpt>
      <trkpt lat="59.04773167" lon="29.95984333">
        <ele>92</ele>
        <time>2026-04-26T09:32:27Z</time>
      </trkpt>
      <trkpt lat="59.04763333" lon="29.95981333">
        <ele>92.1</ele>
        <time>2026-04-26T09:32:32Z</time>
      </trkpt>
      <trkpt lat="59.047545" lon="29.95974667">
        <ele>90.7</ele>
        <time>2026-04-26T09:32:44Z</time>
      </trkpt>
      <trkpt lat="59.047455" lon="29.95971333">
        <ele>89.9</ele>
        <time>2026-04-26T09:32:59Z</time>
      </trkpt>
      <trkpt lat="59.04735167" lon="29.9597">
        <ele>90.2</ele>
        <time>2026-04-26T09:33:12Z</time>
      </trkpt>
      <trkpt lat="59.04726" lon="29.95967667">
        <ele>90</ele>
        <time>2026-04-26T09:33:20Z</time>
      </trkpt>
      <trkpt lat="59.04715" lon="29.95971167">
        <ele>88.5</ele>
        <time>2026-04-26T09:33:29Z</time>
      </trkpt>
      <trkpt lat="59.04706" lon="29.95974167">
        <ele>89.7</ele>
        <time>2026-04-26T09:33:38Z</time>
      </trkpt>
      <trkpt lat="59.04694167" lon="29.95970167">
        <ele>91.4</ele>
        <time>2026-04-26T09:33:54Z</time>
      </trkpt>
      <trkpt lat="59.046915" lon="29.95953167">
        <ele>95.4</ele>
        <time>2026-04-26T09:34:09Z</time>
      </trkpt>
      <trkpt lat="59.046835" lon="29.95944333">
        <ele>96.8</ele>
        <time>2026-04-26T09:34:25Z</time>
      </trkpt>
      <trkpt lat="59.04674167" lon="29.95942167">
        <ele>95.3</ele>
        <time>2026-04-26T09:34:32Z</time>
      </trkpt>
      <trkpt lat="59.04664667" lon="29.95940833">
        <ele>91.7</ele>
        <time>2026-04-26T09:34:40Z</time>
      </trkpt>
      <trkpt lat="59.04655333" lon="29.95944">
        <ele>88.1</ele>
        <time>2026-04-26T09:34:52Z</time>
      </trkpt>
      <trkpt lat="59.04645333" lon="29.95938167">
        <ele>87.1</ele>
        <time>2026-04-26T09:34:59Z</time>
      </trkpt>
      <trkpt lat="59.04635167" lon="29.95936167">
        <ele>87.8</ele>
        <time>2026-04-26T09:35:06Z</time>
      </trkpt>
      <trkpt lat="59.04625667" lon="29.95932667">
        <ele>87.8</ele>
        <time>2026-04-26T09:35:13Z</time>
      </trkpt>
      <trkpt lat="59.04611" lon="29.95923167">
        <ele>85.7</ele>
        <time>2026-04-26T09:35:31Z</time>
      </trkpt>
      <trkpt lat="59.04602667" lon="29.95915833">
        <ele>82</ele>
        <time>2026-04-26T09:36:13Z</time>
      </trkpt>
      <trkpt lat="59.04593833" lon="29.95909667">
        <ele>80.3</ele>
        <time>2026-04-26T09:36:27Z</time>
      </trkpt>
      <trkpt lat="59.045845" lon="29.95911167">
        <ele>79.8</ele>
        <time>2026-04-26T09:36:33Z</time>
      </trkpt>
      <trkpt lat="59.04575333" lon="29.95911">
        <ele>80</ele>
        <time>2026-04-26T09:36:39Z</time>
      </trkpt>
      <trkpt lat="59.04566167" lon="29.959085">
        <ele>79.6</ele>
        <time>2026-04-26T09:36:48Z</time>
      </trkpt>
      <trkpt lat="59.04556667" lon="29.95902833">
        <ele>82.7</ele>
        <time>2026-04-26T09:37:03Z</time>
      </trkpt>
      <trkpt lat="59.04546333" lon="29.95902667">
        <ele>83.8</ele>
        <time>2026-04-26T09:37:12Z</time>
      </trkpt>
      <trkpt lat="59.04537167" lon="29.95903167">
        <ele>83.1</ele>
        <time>2026-04-26T09:37:21Z</time>
      </trkpt>
      <trkpt lat="59.04528" lon="29.95903">
        <ele>83.9</ele>
        <time>2026-04-26T09:37:31Z</time>
      </trkpt>
      <trkpt lat="59.04518167" lon="29.959055">
        <ele>84.1</ele>
        <time>2026-04-26T09:37:44Z</time>
      </trkpt>
      <trkpt lat="59.045085" lon="29.95905">
        <ele>85.3</ele>
        <time>2026-04-26T09:37:55Z</time>
      </trkpt>
      <trkpt lat="59.04499833" lon="29.958975">
        <ele>86.8</ele>
        <time>2026-04-26T09:38:09Z</time>
      </trkpt>
      <trkpt lat="59.04490333" lon="29.95894167">
        <ele>88.3</ele>
        <time>2026-04-26T09:38:19Z</time>
      </trkpt>
      <trkpt lat="59.04482167" lon="29.958865">
        <ele>86.9</ele>
        <time>2026-04-26T09:38:31Z</time>
      </trkpt>
      <trkpt lat="59.04472833" lon="29.95880167">
        <ele>84.9</ele>
        <time>2026-04-26T09:38:38Z</time>
      </trkpt>
      <trkpt lat="59.04463167" lon="29.95877">
        <ele>83.9</ele>
        <time>2026-04-26T09:38:44Z</time>
      </trkpt>
      <trkpt lat="59.044535" lon="29.95877667">
        <ele>81.7</ele>
        <time>2026-04-26T09:38:54Z</time>
      </trkpt>
      <trkpt lat="59.04443" lon="29.95874333">
        <ele>81.3</ele>
        <time>2026-04-26T09:39:01Z</time>
      </trkpt>
      <trkpt lat="59.04434833" lon="29.95862333">
        <ele>80.6</ele>
        <time>2026-04-26T09:39:13Z</time>
      </trkpt>
      <trkpt lat="59.04425667" lon="29.958625">
        <ele>80.3</ele>
        <time>2026-04-26T09:39:22Z</time>
      </trkpt>
      <trkpt lat="59.044165" lon="29.9586">
        <ele>78.6</ele>
        <time>2026-04-26T09:39:39Z</time>
      </trkpt>
      <trkpt lat="59.044075" lon="29.958565">
        <ele>82.4</ele>
        <time>2026-04-26T09:39:53Z</time>
      </trkpt>
      <trkpt lat="59.04397833" lon="29.95853333">
        <ele>84.5</ele>
        <time>2026-04-26T09:39:58Z</time>
      </trkpt>
      <trkpt lat="59.043885" lon="29.95852833">
        <ele>82.2</ele>
        <time>2026-04-26T09:40:04Z</time>
      </trkpt>
      <trkpt lat="59.04378667" lon="29.95851">
        <ele>79.8</ele>
        <time>2026-04-26T09:40:15Z</time>
      </trkpt>
      <trkpt lat="59.04368667" lon="29.958505">
        <ele>76.9</ele>
        <time>2026-04-26T09:40:23Z</time>
      </trkpt>
      <trkpt lat="59.04359667" lon="29.95857">
        <ele>73.6</ele>
        <time>2026-04-26T09:40:32Z</time>
      </trkpt>
      <trkpt lat="59.043505" lon="29.95861167">
        <ele>70</ele>
        <time>2026-04-26T09:40:40Z</time>
      </trkpt>
      <trkpt lat="59.04343" lon="29.95851333">
        <ele>67.3</ele>
        <time>2026-04-26T09:40:51Z</time>
      </trkpt>
      <trkpt lat="59.04334167" lon="29.958435">
        <ele>69.2</ele>
        <time>2026-04-26T09:41:01Z</time>
      </trkpt>
      <trkpt lat="59.04325833" lon="29.95833">
        <ele>75.2</ele>
        <time>2026-04-26T09:41:12Z</time>
      </trkpt>
      <trkpt lat="59.043165" lon="29.95831667">
        <ele>82.3</ele>
        <time>2026-04-26T09:41:25Z</time>
      </trkpt>
      <trkpt lat="59.04308" lon="29.95824833">
        <ele>83.7</ele>
        <time>2026-04-26T09:41:34Z</time>
      </trkpt>
      <trkpt lat="59.04298333" lon="29.95819833">
        <ele>86.1</ele>
        <time>2026-04-26T09:41:44Z</time>
      </trkpt>
      <trkpt lat="59.04289333" lon="29.95816833">
        <ele>87</ele>
        <time>2026-04-26T09:41:54Z</time>
      </trkpt>
      <trkpt lat="59.04279" lon="29.95814833">
        <ele>82.7</ele>
        <time>2026-04-26T09:42:08Z</time>
      </trkpt>
      <trkpt lat="59.0427" lon="29.95811667">
        <ele>81.5</ele>
        <time>2026-04-26T09:42:14Z</time>
      </trkpt>
      <trkpt lat="59.04261167" lon="29.958065">
        <ele>80.9</ele>
        <time>2026-04-26T09:42:25Z</time>
      </trkpt>
      <trkpt lat="59.04251167" lon="29.95805333">
        <ele>82.8</ele>
        <time>2026-04-26T09:42:35Z</time>
      </trkpt>
      <trkpt lat="59.04242167" lon="29.958035">
        <ele>82.7</ele>
        <time>2026-04-26T09:42:43Z</time>
      </trkpt>
      <trkpt lat="59.04233" lon="29.95797333">
        <ele>83.3</ele>
        <time>2026-04-26T09:42:55Z</time>
      </trkpt>
      <trkpt lat="59.04223167" lon="29.95797333">
        <ele>83.6</ele>
        <time>2026-04-26T09:43:07Z</time>
      </trkpt>
      <trkpt lat="59.04214333" lon="29.95792333">
        <ele>82.1</ele>
        <time>2026-04-26T09:43:19Z</time>
      </trkpt>
      <trkpt lat="59.042045" lon="29.95793">
        <ele>80.2</ele>
        <time>2026-04-26T09:43:32Z</time>
      </trkpt>
      <trkpt lat="59.041945" lon="29.957935">
        <ele>79.4</ele>
        <time>2026-04-26T09:43:37Z</time>
      </trkpt>
      <trkpt lat="59.04184667" lon="29.95790833">
        <ele>78.8</ele>
        <time>2026-04-26T09:43:48Z</time>
      </trkpt>
      <trkpt lat="59.04175" lon="29.95787333">
        <ele>77.6</ele>
        <time>2026-04-26T09:43:58Z</time>
      </trkpt>
      <trkpt lat="59.04168" lon="29.95776333">
        <ele>76.9</ele>
        <time>2026-04-26T09:44:10Z</time>
      </trkpt>
      <trkpt lat="59.04158667" lon="29.95771167">
        <ele>76.5</ele>
        <time>2026-04-26T09:44:21Z</time>
      </trkpt>
      <trkpt lat="59.041495" lon="29.95766167">
        <ele>77.6</ele>
        <time>2026-04-26T09:44:36Z</time>
      </trkpt>
      <trkpt lat="59.041405" lon="29.95766167">
        <ele>81.1</ele>
        <time>2026-04-26T09:45:01Z</time>
      </trkpt>
      <trkpt lat="59.04145167" lon="29.95782">
        <ele>81.5</ele>
        <time>2026-04-26T09:45:13Z</time>
      </trkpt>
      <trkpt lat="59.04143167" lon="29.958055">
        <ele>80.7</ele>
        <time>2026-04-26T09:45:28Z</time>
      </trkpt>
      <trkpt lat="59.04139333" lon="29.95823333">
        <ele>79.8</ele>
        <time>2026-04-26T09:45:37Z</time>
      </trkpt>
      <trkpt lat="59.041455" lon="29.958375">
        <ele>78.7</ele>
        <time>2026-04-26T09:45:48Z</time>
      </trkpt>
      <trkpt lat="59.04153167" lon="29.95846833">
        <ele>77.7</ele>
        <time>2026-04-26T09:45:55Z</time>
      </trkpt>
      <trkpt lat="59.04150333" lon="29.95867167">
        <ele>77.5</ele>
        <time>2026-04-26T09:46:19Z</time>
      </trkpt>
      <trkpt lat="59.04141333" lon="29.95863667">
        <ele>76.6</ele>
        <time>2026-04-26T09:46:29Z</time>
      </trkpt>
      <trkpt lat="59.04138167" lon="29.95843333">
        <ele>76.5</ele>
        <time>2026-04-26T09:46:43Z</time>
      </trkpt>
      <trkpt lat="59.041365" lon="29.95825833">
        <ele>76.9</ele>
        <time>2026-04-26T09:46:51Z</time>
      </trkpt>
      <trkpt lat="59.041315" lon="29.95810167">
        <ele>78.9</ele>
        <time>2026-04-26T09:47:00Z</time>
      </trkpt>
      <trkpt lat="59.041285" lon="29.957915">
        <ele>80.5</ele>
        <time>2026-04-26T09:47:09Z</time>
      </trkpt>
      <trkpt lat="59.04125167" lon="29.95772833">
        <ele>80.2</ele>
        <time>2026-04-26T09:47:22Z</time>
      </trkpt>
      <trkpt lat="59.04115333" lon="29.95765333">
        <ele>77.4</ele>
        <time>2026-04-26T09:47:39Z</time>
      </trkpt>
      <trkpt lat="59.04106167" lon="29.95763167">
        <ele>78</ele>
        <time>2026-04-26T09:47:50Z</time>
      </trkpt>
      <trkpt lat="59.04096667" lon="29.957615">
        <ele>76.8</ele>
        <time>2026-04-26T09:47:58Z</time>
      </trkpt>
      <trkpt lat="59.040875" lon="29.95757833">
        <ele>75.7</ele>
        <time>2026-04-26T09:48:12Z</time>
      </trkpt>
      <trkpt lat="59.04078333" lon="29.957545">
        <ele>75.1</ele>
        <time>2026-04-26T09:48:21Z</time>
      </trkpt>
      <trkpt lat="59.04068833" lon="29.957565">
        <ele>75</ele>
        <time>2026-04-26T09:48:43Z</time>
      </trkpt>
      <trkpt lat="59.04059167" lon="29.95751833">
        <ele>75.4</ele>
        <time>2026-04-26T09:48:50Z</time>
      </trkpt>
      <trkpt lat="59.04047833" lon="29.95745333">
        <ele>77.6</ele>
        <time>2026-04-26T09:49:09Z</time>
      </trkpt>
      <trkpt lat="59.04038667" lon="29.957425">
        <ele>76.9</ele>
        <time>2026-04-26T09:49:20Z</time>
      </trkpt>
      <trkpt lat="59.04030167" lon="29.95733667">
        <ele>77.9</ele>
        <time>2026-04-26T09:49:31Z</time>
      </trkpt>
      <trkpt lat="59.04020333" lon="29.95729833">
        <ele>77.7</ele>
        <time>2026-04-26T09:49:45Z</time>
      </trkpt>
      <trkpt lat="59.04011333" lon="29.95731333">
        <ele>77.6</ele>
        <time>2026-04-26T09:49:52Z</time>
      </trkpt>
      <trkpt lat="59.04001833" lon="29.95729167">
        <ele>78</ele>
        <time>2026-04-26T09:50:02Z</time>
      </trkpt>
      <trkpt lat="59.03992167" lon="29.95723833">
        <ele>77.4</ele>
        <time>2026-04-26T09:50:15Z</time>
      </trkpt>
      <trkpt lat="59.039825" lon="29.95724667">
        <ele>74.9</ele>
        <time>2026-04-26T09:50:30Z</time>
      </trkpt>
      <trkpt lat="59.039725" lon="29.95723333">
        <ele>74.6</ele>
        <time>2026-04-26T09:50:39Z</time>
      </trkpt>
      <trkpt lat="59.03963" lon="29.95722833">
        <ele>73.7</ele>
        <time>2026-04-26T09:51:49Z</time>
      </trkpt>
      <trkpt lat="59.039535" lon="29.95714167">
        <ele>74.8</ele>
        <time>2026-04-26T09:52:25Z</time>
      </trkpt>
      <trkpt lat="59.03944167" lon="29.95708667">
        <ele>78.7</ele>
        <time>2026-04-26T09:52:35Z</time>
      </trkpt>
      <trkpt lat="59.03942" lon="29.95727667">
        <ele>82.7</ele>
        <time>2026-04-26T09:53:07Z</time>
      </trkpt>
      <trkpt lat="59.03949333" lon="29.957415">
        <ele>84.5</ele>
        <time>2026-04-26T09:53:38Z</time>
      </trkpt>
      <trkpt lat="59.03942167" lon="29.95756167">
        <ele>85.4</ele>
        <time>2026-04-26T09:54:05Z</time>
      </trkpt>
      <trkpt lat="59.039505" lon="29.95747167">
        <ele>87.2</ele>
        <time>2026-04-26T09:54:32Z</time>
      </trkpt>
      <trkpt lat="59.03953833" lon="29.95763667">
        <ele>91.2</ele>
        <time>2026-04-26T09:54:56Z</time>
      </trkpt>
      <trkpt lat="59.03963" lon="29.95776833">
        <ele>92.5</ele>
        <time>2026-04-26T09:55:16Z</time>
      </trkpt>
      <trkpt lat="59.03960667" lon="29.95794667">
        <ele>90.8</ele>
        <time>2026-04-26T09:55:35Z</time>
      </trkpt>
      <trkpt lat="59.039695" lon="29.95803167">
        <ele>89</ele>
        <time>2026-04-26T09:55:47Z</time>
      </trkpt>
      <trkpt lat="59.039695" lon="29.95824667">
        <ele>85.6</ele>
        <time>2026-04-26T09:56:34Z</time>
      </trkpt>
      <trkpt lat="59.039705" lon="29.95842667">
        <ele>76.8</ele>
        <time>2026-04-26T09:57:08Z</time>
      </trkpt>
      <trkpt lat="59.03971833" lon="29.95860667">
        <ele>75.7</ele>
        <time>2026-04-26T09:57:21Z</time>
      </trkpt>
      <trkpt lat="59.039715" lon="29.958785">
        <ele>75.4</ele>
        <time>2026-04-26T09:57:29Z</time>
      </trkpt>
      <trkpt lat="59.03974333" lon="29.95896">
        <ele>75.5</ele>
        <time>2026-04-26T09:57:41Z</time>
      </trkpt>
      <trkpt lat="59.03978167" lon="29.959135">
        <ele>74.8</ele>
        <time>2026-04-26T09:57:53Z</time>
      </trkpt>
      <trkpt lat="59.039745" lon="29.95930833">
        <ele>81.5</ele>
        <time>2026-04-26T09:58:27Z</time>
      </trkpt>
      <trkpt lat="59.03979167" lon="29.95946333">
        <ele>82.6</ele>
        <time>2026-04-26T09:58:38Z</time>
      </trkpt>
      <trkpt lat="59.03983" lon="29.95963167">
        <ele>80.5</ele>
        <time>2026-04-26T09:58:50Z</time>
      </trkpt>
      <trkpt lat="59.03986167" lon="29.959805">
        <ele>79.5</ele>
        <time>2026-04-26T09:59:00Z</time>
      </trkpt>
      <trkpt lat="59.03988333" lon="29.95998333">
        <ele>78.6</ele>
        <time>2026-04-26T09:59:08Z</time>
      </trkpt>
      <trkpt lat="59.03991167" lon="29.960155">
        <ele>77.5</ele>
        <time>2026-04-26T09:59:18Z</time>
      </trkpt>
      <trkpt lat="59.039955" lon="29.96032167">
        <ele>76.7</ele>
        <time>2026-04-26T09:59:26Z</time>
      </trkpt>
      <trkpt lat="59.03995" lon="29.96049667">
        <ele>76.5</ele>
        <time>2026-04-26T09:59:35Z</time>
      </trkpt>
      <trkpt lat="59.03997" lon="29.96067833">
        <ele>76.9</ele>
        <time>2026-04-26T09:59:42Z</time>
      </trkpt>
      <trkpt lat="59.03997167" lon="29.96085333">
        <ele>78.8</ele>
        <time>2026-04-26T09:59:52Z</time>
      </trkpt>
      <trkpt lat="59.03995333" lon="29.96105">
        <ele>80.2</ele>
        <time>2026-04-26T10:00:03Z</time>
      </trkpt>
      <trkpt lat="59.039975" lon="29.96123">
        <ele>81.2</ele>
        <time>2026-04-26T10:00:14Z</time>
      </trkpt>
      <trkpt lat="59.04" lon="29.96140833">
        <ele>83.1</ele>
        <time>2026-04-26T10:00:28Z</time>
      </trkpt>
      <trkpt lat="59.040035" lon="29.961585">
        <ele>89.2</ele>
        <time>2026-04-26T10:00:38Z</time>
      </trkpt>
      <trkpt lat="59.04002" lon="29.96176333">
        <ele>89.4</ele>
        <time>2026-04-26T10:00:48Z</time>
      </trkpt>
      <trkpt lat="59.04005833" lon="29.96192167">
        <ele>90.1</ele>
        <time>2026-04-26T10:00:58Z</time>
      </trkpt>
      <trkpt lat="59.04017333" lon="29.96193333">
        <ele>92.8</ele>
        <time>2026-04-26T10:01:19Z</time>
      </trkpt>
      <trkpt lat="59.04014333" lon="29.9621">
        <ele>94.3</ele>
        <time>2026-04-26T10:01:28Z</time>
      </trkpt>
      <trkpt lat="59.04018167" lon="29.96227833">
        <ele>94.2</ele>
        <time>2026-04-26T10:01:42Z</time>
      </trkpt>
      <trkpt lat="59.04017333" lon="29.96245667">
        <ele>93.2</ele>
        <time>2026-04-26T10:01:52Z</time>
      </trkpt>
      <trkpt lat="59.04015333" lon="29.96263333">
        <ele>95.3</ele>
        <time>2026-04-26T10:02:04Z</time>
      </trkpt>
      <trkpt lat="59.04017333" lon="29.96281667">
        <ele>93.1</ele>
        <time>2026-04-26T10:02:17Z</time>
      </trkpt>
      <trkpt lat="59.040185" lon="29.963005">
        <ele>90.5</ele>
        <time>2026-04-26T10:02:27Z</time>
      </trkpt>
      <trkpt lat="59.04021667" lon="29.96319333">
        <ele>89.6</ele>
        <time>2026-04-26T10:02:35Z</time>
      </trkpt>
      <trkpt lat="59.040225" lon="29.96338833">
        <ele>89.6</ele>
        <time>2026-04-26T10:02:47Z</time>
      </trkpt>
      <trkpt lat="59.04027333" lon="29.96356">
        <ele>89</ele>
        <time>2026-04-26T10:02:56Z</time>
      </trkpt>
      <trkpt lat="59.04025" lon="29.96372833">
        <ele>86</ele>
        <time>2026-04-26T10:03:05Z</time>
      </trkpt>
      <trkpt lat="59.04031333" lon="29.96389">
        <ele>85.7</ele>
        <time>2026-04-26T10:03:12Z</time>
      </trkpt>
      <trkpt lat="59.040325" lon="29.96407167">
        <ele>84.7</ele>
        <time>2026-04-26T10:03:20Z</time>
      </trkpt>
      <trkpt lat="59.04035" lon="29.96425">
        <ele>84.7</ele>
        <time>2026-04-26T10:03:30Z</time>
      </trkpt>
      <trkpt lat="59.040385" lon="29.96443167">
        <ele>87.9</ele>
        <time>2026-04-26T10:03:40Z</time>
      </trkpt>
      <trkpt lat="59.04036833" lon="29.96461">
        <ele>92.2</ele>
        <time>2026-04-26T10:03:48Z</time>
      </trkpt>
      <trkpt lat="59.04041833" lon="29.96476167">
        <ele>93.9</ele>
        <time>2026-04-26T10:04:00Z</time>
      </trkpt>
      <trkpt lat="59.04042" lon="29.96494333">
        <ele>95.4</ele>
        <time>2026-04-26T10:04:10Z</time>
      </trkpt>
      <trkpt lat="59.04038333" lon="29.965125">
        <ele>97.7</ele>
        <time>2026-04-26T10:04:19Z</time>
      </trkpt>
      <trkpt lat="59.04038167" lon="29.96530667">
        <ele>98.4</ele>
        <time>2026-04-26T10:04:28Z</time>
      </trkpt>
      <trkpt lat="59.04044833" lon="29.96542833">
        <ele>97.3</ele>
        <time>2026-04-26T10:04:47Z</time>
      </trkpt>
      <trkpt lat="59.04047167" lon="29.96562333">
        <ele>97.4</ele>
        <time>2026-04-26T10:05:01Z</time>
      </trkpt>
      <trkpt lat="59.04052333" lon="29.96576667">
        <ele>98.3</ele>
        <time>2026-04-26T10:05:19Z</time>
      </trkpt>
      <trkpt lat="59.04061667" lon="29.96574167">
        <ele>97.9</ele>
        <time>2026-04-26T10:05:28Z</time>
      </trkpt>
      <trkpt lat="59.04058833" lon="29.965915">
        <ele>98.7</ele>
        <time>2026-04-26T10:05:41Z</time>
      </trkpt>
      <trkpt lat="59.04052333" lon="29.96603667">
        <ele>98.3</ele>
        <time>2026-04-26T10:05:51Z</time>
      </trkpt>
      <trkpt lat="59.04056167" lon="29.966195">
        <ele>99.1</ele>
        <time>2026-04-26T10:06:02Z</time>
      </trkpt>
      <trkpt lat="59.04051833" lon="29.96637167">
        <ele>98.1</ele>
        <time>2026-04-26T10:06:11Z</time>
      </trkpt>
      <trkpt lat="59.04059667" lon="29.96646833">
        <ele>98.5</ele>
        <time>2026-04-26T10:06:30Z</time>
      </trkpt>
      <trkpt lat="59.040575" lon="29.96665833">
        <ele>99.9</ele>
        <time>2026-04-26T10:07:12Z</time>
      </trkpt>
      <trkpt lat="59.04058167" lon="29.96683833">
        <ele>100.7</ele>
        <time>2026-04-26T10:07:24Z</time>
      </trkpt>
      <trkpt lat="59.040575" lon="29.96703">
        <ele>97.5</ele>
        <time>2026-04-26T10:07:37Z</time>
      </trkpt>
      <trkpt lat="59.04058167" lon="29.96720667">
        <ele>96</ele>
        <time>2026-04-26T10:07:44Z</time>
      </trkpt>
      <trkpt lat="59.04062" lon="29.96736667">
        <ele>94.8</ele>
        <time>2026-04-26T10:07:55Z</time>
      </trkpt>
      <trkpt lat="59.04063167" lon="29.96754333">
        <ele>92.8</ele>
        <time>2026-04-26T10:08:05Z</time>
      </trkpt>
      <trkpt lat="59.04067" lon="29.96772167">
        <ele>91.3</ele>
        <time>2026-04-26T10:08:15Z</time>
      </trkpt>
      <trkpt lat="59.0407" lon="29.96788667">
        <ele>88.4</ele>
        <time>2026-04-26T10:08:26Z</time>
      </trkpt>
      <trkpt lat="59.04073833" lon="29.968045">
        <ele>87.8</ele>
        <time>2026-04-26T10:08:34Z</time>
      </trkpt>
      <trkpt lat="59.040765" lon="29.968265">
        <ele>88.7</ele>
        <time>2026-04-26T10:08:45Z</time>
      </trkpt>
      <trkpt lat="59.04080333" lon="29.96844167">
        <ele>85.5</ele>
        <time>2026-04-26T10:08:55Z</time>
      </trkpt>
      <trkpt lat="59.04080333" lon="29.96862667">
        <ele>82.5</ele>
        <time>2026-04-26T10:09:05Z</time>
      </trkpt>
      <trkpt lat="59.04084167" lon="29.96881167">
        <ele>82.6</ele>
        <time>2026-04-26T10:09:13Z</time>
      </trkpt>
      <trkpt lat="59.040875" lon="29.96898333">
        <ele>81.8</ele>
        <time>2026-04-26T10:09:22Z</time>
      </trkpt>
      <trkpt lat="59.04088667" lon="29.96916333">
        <ele>81.3</ele>
        <time>2026-04-26T10:09:31Z</time>
      </trkpt>
      <trkpt lat="59.04088" lon="29.96936">
        <ele>81.7</ele>
        <time>2026-04-26T10:09:39Z</time>
      </trkpt>
      <trkpt lat="59.04089833" lon="29.96954833">
        <ele>83.1</ele>
        <time>2026-04-26T10:09:47Z</time>
      </trkpt>
      <trkpt lat="59.040895" lon="29.969725">
        <ele>84.5</ele>
        <time>2026-04-26T10:09:55Z</time>
      </trkpt>
      <trkpt lat="59.04091" lon="29.96990667">
        <ele>85.5</ele>
        <time>2026-04-26T10:10:03Z</time>
      </trkpt>
      <trkpt lat="59.04097333" lon="29.97003833">
        <ele>86.1</ele>
        <time>2026-04-26T10:10:12Z</time>
      </trkpt>
      <trkpt lat="59.04100667" lon="29.97021167">
        <ele>85.9</ele>
        <time>2026-04-26T10:10:21Z</time>
      </trkpt>
      <trkpt lat="59.04101333" lon="29.97039">
        <ele>86.4</ele>
        <time>2026-04-26T10:10:34Z</time>
      </trkpt>
      <trkpt lat="59.04103667" lon="29.97057667">
        <ele>89.5</ele>
        <time>2026-04-26T10:10:59Z</time>
      </trkpt>
      <trkpt lat="59.04102" lon="29.97075667">
        <ele>89.7</ele>
        <time>2026-04-26T10:11:10Z</time>
      </trkpt>
      <trkpt lat="59.04103333" lon="29.97095">
        <ele>88.3</ele>
        <time>2026-04-26T10:11:21Z</time>
      </trkpt>
      <trkpt lat="59.04105667" lon="29.971125">
        <ele>87.7</ele>
        <time>2026-04-26T10:11:30Z</time>
      </trkpt>
      <trkpt lat="59.04108167" lon="29.97130667">
        <ele>86.5</ele>
        <time>2026-04-26T10:11:42Z</time>
      </trkpt>
      <trkpt lat="59.04108833" lon="29.97148667">
        <ele>86.6</ele>
        <time>2026-04-26T10:11:49Z</time>
      </trkpt>
      <trkpt lat="59.04113833" lon="29.97163167">
        <ele>87.6</ele>
        <time>2026-04-26T10:11:57Z</time>
      </trkpt>
      <trkpt lat="59.04114333" lon="29.97180667">
        <ele>89.3</ele>
        <time>2026-04-26T10:12:08Z</time>
      </trkpt>
      <trkpt lat="59.04118167" lon="29.97198167">
        <ele>89.7</ele>
        <time>2026-04-26T10:12:18Z</time>
      </trkpt>
      <trkpt lat="59.04121167" lon="29.972155">
        <ele>90.7</ele>
        <time>2026-04-26T10:12:28Z</time>
      </trkpt>
      <trkpt lat="59.04123167" lon="29.972325">
        <ele>91.9</ele>
        <time>2026-04-26T10:12:42Z</time>
      </trkpt>
      <trkpt lat="59.04128" lon="29.97248167">
        <ele>90.2</ele>
        <time>2026-04-26T10:12:51Z</time>
      </trkpt>
      <trkpt lat="59.04127833" lon="29.972695">
        <ele>89.6</ele>
        <time>2026-04-26T10:12:57Z</time>
      </trkpt>
      <trkpt lat="59.04129667" lon="29.97286833">
        <ele>88.7</ele>
        <time>2026-04-26T10:13:04Z</time>
      </trkpt>
      <trkpt lat="59.04133333" lon="29.97304167">
        <ele>88.1</ele>
        <time>2026-04-26T10:13:13Z</time>
      </trkpt>
      <trkpt lat="59.04135" lon="29.97321333">
        <ele>91.4</ele>
        <time>2026-04-26T10:13:21Z</time>
      </trkpt>
      <trkpt lat="59.04135833" lon="29.973405">
        <ele>93.9</ele>
        <time>2026-04-26T10:13:35Z</time>
      </trkpt>
      <trkpt lat="59.04135667" lon="29.973595">
        <ele>94.8</ele>
        <time>2026-04-26T10:13:43Z</time>
      </trkpt>
      <trkpt lat="59.04136333" lon="29.97377833">
        <ele>95.8</ele>
        <time>2026-04-26T10:13:53Z</time>
      </trkpt>
      <trkpt lat="59.041395" lon="29.97394167">
        <ele>97.2</ele>
        <time>2026-04-26T10:14:03Z</time>
      </trkpt>
      <trkpt lat="59.04143" lon="29.97412167">
        <ele>94.7</ele>
        <time>2026-04-26T10:14:15Z</time>
      </trkpt>
      <trkpt lat="59.04147" lon="29.97427833">
        <ele>94</ele>
        <time>2026-04-26T10:14:24Z</time>
      </trkpt>
      <trkpt lat="59.04147333" lon="29.974455">
        <ele>91.8</ele>
        <time>2026-04-26T10:14:37Z</time>
      </trkpt>
      <trkpt lat="59.04156333" lon="29.97445">
        <ele>94.8</ele>
        <time>2026-04-26T10:14:45Z</time>
      </trkpt>
      <trkpt lat="59.041695" lon="29.974405">
        <ele>98.2</ele>
        <time>2026-04-26T10:15:24Z</time>
      </trkpt>
      <trkpt lat="59.04179" lon="29.97443667">
        <ele>101.4</ele>
        <time>2026-04-26T10:16:26Z</time>
      </trkpt>
      <trkpt lat="59.04188333" lon="29.97449333">
        <ele>104.9</ele>
        <time>2026-04-26T10:16:36Z</time>
      </trkpt>
      <trkpt lat="59.04197" lon="29.97454167">
        <ele>107.3</ele>
        <time>2026-04-26T10:16:47Z</time>
      </trkpt>
      <trkpt lat="59.04206333" lon="29.97458833">
        <ele>104.4</ele>
        <time>2026-04-26T10:16:57Z</time>
      </trkpt>
      <trkpt lat="59.042155" lon="29.97458167">
        <ele>102.2</ele>
        <time>2026-04-26T10:17:06Z</time>
      </trkpt>
      <trkpt lat="59.04224833" lon="29.97463">
        <ele>101.6</ele>
        <time>2026-04-26T10:17:15Z</time>
      </trkpt>
      <trkpt lat="59.04233333" lon="29.97471333">
        <ele>98.8</ele>
        <time>2026-04-26T10:17:24Z</time>
      </trkpt>
      <trkpt lat="59.04242" lon="29.97476">
        <ele>95.9</ele>
        <time>2026-04-26T10:17:33Z</time>
      </trkpt>
      <trkpt lat="59.04251167" lon="29.97476833">
        <ele>94</ele>
        <time>2026-04-26T10:17:46Z</time>
      </trkpt>
      <trkpt lat="59.04244167" lon="29.97458167">
        <ele>97.9</ele>
        <time>2026-04-26T10:18:06Z</time>
      </trkpt>
      <trkpt lat="59.04247" lon="29.97441">
        <ele>109.1</ele>
        <time>2026-04-26T10:19:42Z</time>
      </trkpt>
      <trkpt lat="59.04245167" lon="29.97423667">
        <ele>106.5</ele>
        <time>2026-04-26T10:19:54Z</time>
      </trkpt>
      <trkpt lat="59.04244667" lon="29.97405833">
        <ele>105.3</ele>
        <time>2026-04-26T10:20:08Z</time>
      </trkpt>
      <trkpt lat="59.04242" lon="29.97388833">
        <ele>104.6</ele>
        <time>2026-04-26T10:20:22Z</time>
      </trkpt>
      <trkpt lat="59.04239833" lon="29.97371667">
        <ele>103.4</ele>
        <time>2026-04-26T10:20:33Z</time>
      </trkpt>
      <trkpt lat="59.042375" lon="29.973545">
        <ele>101.4</ele>
        <time>2026-04-26T10:20:44Z</time>
      </trkpt>
      <trkpt lat="59.04235" lon="29.97337">
        <ele>99.2</ele>
        <time>2026-04-26T10:20:54Z</time>
      </trkpt>
      <trkpt lat="59.04233833" lon="29.97319667">
        <ele>98.8</ele>
        <time>2026-04-26T10:21:03Z</time>
      </trkpt>
      <trkpt lat="59.04230833" lon="29.97301667">
        <ele>97.3</ele>
        <time>2026-04-26T10:21:14Z</time>
      </trkpt>
      <trkpt lat="59.04225833" lon="29.97286667">
        <ele>96.8</ele>
        <time>2026-04-26T10:21:21Z</time>
      </trkpt>
      <trkpt lat="59.04224167" lon="29.97269">
        <ele>96.7</ele>
        <time>2026-04-26T10:21:29Z</time>
      </trkpt>
      <trkpt lat="59.04222333" lon="29.97251333">
        <ele>96.1</ele>
        <time>2026-04-26T10:21:39Z</time>
      </trkpt>
      <trkpt lat="59.04222333" lon="29.97232167">
        <ele>95.5</ele>
        <time>2026-04-26T10:21:49Z</time>
      </trkpt>
      <trkpt lat="59.042205" lon="29.97213167">
        <ele>94.3</ele>
        <time>2026-04-26T10:22:01Z</time>
      </trkpt>
      <trkpt lat="59.04217667" lon="29.97196333">
        <ele>95.4</ele>
        <time>2026-04-26T10:22:12Z</time>
      </trkpt>
      <trkpt lat="59.04215333" lon="29.97178">
        <ele>95.7</ele>
        <time>2026-04-26T10:22:20Z</time>
      </trkpt>
      <trkpt lat="59.042105" lon="29.97162833">
        <ele>94.3</ele>
        <time>2026-04-26T10:22:28Z</time>
      </trkpt>
      <trkpt lat="59.04210667" lon="29.97143333">
        <ele>90.8</ele>
        <time>2026-04-26T10:22:40Z</time>
      </trkpt>
      <trkpt lat="59.04208" lon="29.97126333">
        <ele>94.1</ele>
        <time>2026-04-26T10:22:52Z</time>
      </trkpt>
      <trkpt lat="59.04204667" lon="29.971095">
        <ele>96.4</ele>
        <time>2026-04-26T10:23:01Z</time>
      </trkpt>
      <trkpt lat="59.04197333" lon="29.97098167">
        <ele>96.7</ele>
        <time>2026-04-26T10:23:11Z</time>
      </trkpt>
      <trkpt lat="59.04195667" lon="29.97080167">
        <ele>91.5</ele>
        <time>2026-04-26T10:23:50Z</time>
      </trkpt>
      <trkpt lat="59.04189167" lon="29.97066333">
        <ele>89.4</ele>
        <time>2026-04-26T10:24:02Z</time>
      </trkpt>
      <trkpt lat="59.041885" lon="29.97048333">
        <ele>91</ele>
        <time>2026-04-26T10:24:23Z</time>
      </trkpt>
      <trkpt lat="59.041825" lon="29.97035167">
        <ele>91.6</ele>
        <time>2026-04-26T10:24:36Z</time>
      </trkpt>
      <trkpt lat="59.04178833" lon="29.970185">
        <ele>91</ele>
        <time>2026-04-26T10:24:50Z</time>
      </trkpt>
      <trkpt lat="59.04171667" lon="29.97007">
        <ele>92</ele>
        <time>2026-04-26T10:25:01Z</time>
      </trkpt>
      <trkpt lat="59.04179" lon="29.96993333">
        <ele>97.9</ele>
        <time>2026-04-26T10:25:43Z</time>
      </trkpt>
      <trkpt lat="59.04169667" lon="29.96999333">
        <ele>93.3</ele>
        <time>2026-04-26T10:26:28Z</time>
      </trkpt>
      <trkpt lat="59.041805" lon="29.96985833">
        <ele>93.2</ele>
        <time>2026-04-26T10:27:46Z</time>
      </trkpt>
      <trkpt lat="59.04188" lon="29.96975333">
        <ele>92.9</ele>
        <time>2026-04-26T10:27:54Z</time>
      </trkpt>
      <trkpt lat="59.04192667" lon="29.96959">
        <ele>91.2</ele>
        <time>2026-04-26T10:28:05Z</time>
      </trkpt>
      <trkpt lat="59.04193167" lon="29.969405">
        <ele>91.8</ele>
        <time>2026-04-26T10:28:17Z</time>
      </trkpt>
      <trkpt lat="59.04190167" lon="29.969235">
        <ele>94.3</ele>
        <time>2026-04-26T10:28:32Z</time>
      </trkpt>
      <trkpt lat="59.04190333" lon="29.96905167">
        <ele>95</ele>
        <time>2026-04-26T10:28:41Z</time>
      </trkpt>
      <trkpt lat="59.04190833" lon="29.96886667">
        <ele>94</ele>
        <time>2026-04-26T10:28:52Z</time>
      </trkpt>
      <trkpt lat="59.04193167" lon="29.96869">
        <ele>92.8</ele>
        <time>2026-04-26T10:29:03Z</time>
      </trkpt>
      <trkpt lat="59.04189167" lon="29.96852833">
        <ele>94</ele>
        <time>2026-04-26T10:29:12Z</time>
      </trkpt>
      <trkpt lat="59.04182" lon="29.96841167">
        <ele>96.1</ele>
        <time>2026-04-26T10:29:20Z</time>
      </trkpt>
      <trkpt lat="59.04180833" lon="29.968235">
        <ele>95.8</ele>
        <time>2026-04-26T10:29:30Z</time>
      </trkpt>
      <trkpt lat="59.04178667" lon="29.96805833">
        <ele>92.9</ele>
        <time>2026-04-26T10:29:41Z</time>
      </trkpt>
      <trkpt lat="59.04175833" lon="29.96787333">
        <ele>90.8</ele>
        <time>2026-04-26T10:29:50Z</time>
      </trkpt>
      <trkpt lat="59.04173333" lon="29.96770167">
        <ele>88.1</ele>
        <time>2026-04-26T10:30:01Z</time>
      </trkpt>
      <trkpt lat="59.04169667" lon="29.96753333">
        <ele>87.3</ele>
        <time>2026-04-26T10:30:12Z</time>
      </trkpt>
      <trkpt lat="59.04168167" lon="29.96734833">
        <ele>86.9</ele>
        <time>2026-04-26T10:30:21Z</time>
      </trkpt>
      <trkpt lat="59.04166667" lon="29.967165">
        <ele>87.7</ele>
        <time>2026-04-26T10:30:30Z</time>
      </trkpt>
      <trkpt lat="59.04163833" lon="29.966985">
        <ele>89.6</ele>
        <time>2026-04-26T10:30:42Z</time>
      </trkpt>
      <trkpt lat="59.04164167" lon="29.96680833">
        <ele>90.3</ele>
        <time>2026-04-26T10:30:50Z</time>
      </trkpt>
      <trkpt lat="59.04156167" lon="29.96671333">
        <ele>99.9</ele>
        <time>2026-04-26T10:31:51Z</time>
      </trkpt>
      <trkpt lat="59.04151333" lon="29.96656333">
        <ele>99</ele>
        <time>2026-04-26T10:32:00Z</time>
      </trkpt>
      <trkpt lat="59.04150333" lon="29.96638">
        <ele>99.4</ele>
        <time>2026-04-26T10:32:16Z</time>
      </trkpt>
      <trkpt lat="59.04157833" lon="29.96624667">
        <ele>100</ele>
        <time>2026-04-26T10:32:30Z</time>
      </trkpt>
      <trkpt lat="59.04160833" lon="29.96606333">
        <ele>99.3</ele>
        <time>2026-04-26T10:32:44Z</time>
      </trkpt>
      <trkpt lat="59.04152667" lon="29.96596833">
        <ele>105</ele>
        <time>2026-04-26T10:33:23Z</time>
      </trkpt>
      <trkpt lat="59.04149167" lon="29.965785">
        <ele>103.4</ele>
        <time>2026-04-26T10:33:35Z</time>
      </trkpt>
      <trkpt lat="59.04159" lon="29.96575833">
        <ele>97.7</ele>
        <time>2026-04-26T10:34:10Z</time>
      </trkpt>
      <trkpt lat="59.04161833" lon="29.965575">
        <ele>94.3</ele>
        <time>2026-04-26T10:34:25Z</time>
      </trkpt>
      <trkpt lat="59.04164333" lon="29.96540667">
        <ele>93.3</ele>
        <time>2026-04-26T10:34:37Z</time>
      </trkpt>
      <trkpt lat="59.04166" lon="29.96523167">
        <ele>90.8</ele>
        <time>2026-04-26T10:34:48Z</time>
      </trkpt>
      <trkpt lat="59.041635" lon="29.96505333">
        <ele>91.2</ele>
        <time>2026-04-26T10:34:59Z</time>
      </trkpt>
      <trkpt lat="59.04159167" lon="29.9649">
        <ele>91.6</ele>
        <time>2026-04-26T10:35:07Z</time>
      </trkpt>
      <trkpt lat="59.04153333" lon="29.96474833">
        <ele>92.4</ele>
        <time>2026-04-26T10:35:13Z</time>
      </trkpt>
      <trkpt lat="59.04147667" lon="29.96459833">
        <ele>94.2</ele>
        <time>2026-04-26T10:35:20Z</time>
      </trkpt>
      <trkpt lat="59.04149167" lon="29.96441667">
        <ele>96.3</ele>
        <time>2026-04-26T10:35:36Z</time>
      </trkpt>
      <trkpt lat="59.04143833" lon="29.96427">
        <ele>95.6</ele>
        <time>2026-04-26T10:35:43Z</time>
      </trkpt>
      <trkpt lat="59.04137667" lon="29.96413667">
        <ele>94.1</ele>
        <time>2026-04-26T10:35:53Z</time>
      </trkpt>
      <trkpt lat="59.041365" lon="29.96394833">
        <ele>95.7</ele>
        <time>2026-04-26T10:36:03Z</time>
      </trkpt>
      <trkpt lat="59.04133333" lon="29.96377">
        <ele>97.7</ele>
        <time>2026-04-26T10:36:11Z</time>
      </trkpt>
      <trkpt lat="59.04135167" lon="29.96358167">
        <ele>100.6</ele>
        <time>2026-04-26T10:36:21Z</time>
      </trkpt>
      <trkpt lat="59.041375" lon="29.96340833">
        <ele>100.1</ele>
        <time>2026-04-26T10:36:31Z</time>
      </trkpt>
      <trkpt lat="59.041335" lon="29.96323667">
        <ele>97.8</ele>
        <time>2026-04-26T10:36:40Z</time>
      </trkpt>
      <trkpt lat="59.04127167" lon="29.96310667">
        <ele>97</ele>
        <time>2026-04-26T10:36:52Z</time>
      </trkpt>
      <trkpt lat="59.04121667" lon="29.96294667">
        <ele>95.8</ele>
        <time>2026-04-26T10:37:03Z</time>
      </trkpt>
      <trkpt lat="59.04118333" lon="29.96278">
        <ele>95</ele>
        <time>2026-04-26T10:37:16Z</time>
      </trkpt>
      <trkpt lat="59.04114333" lon="29.96260833">
        <ele>92.9</ele>
        <time>2026-04-26T10:37:25Z</time>
      </trkpt>
      <trkpt lat="59.04114833" lon="29.96242333">
        <ele>91.7</ele>
        <time>2026-04-26T10:37:37Z</time>
      </trkpt>
      <trkpt lat="59.04113333" lon="29.962245">
        <ele>92.9</ele>
        <time>2026-04-26T10:37:54Z</time>
      </trkpt>
      <trkpt lat="59.04111833" lon="29.962055">
        <ele>94.4</ele>
        <time>2026-04-26T10:38:04Z</time>
      </trkpt>
      <trkpt lat="59.04111667" lon="29.961875">
        <ele>96.8</ele>
        <time>2026-04-26T10:38:16Z</time>
      </trkpt>
      <trkpt lat="59.04113667" lon="29.96169167">
        <ele>96.5</ele>
        <time>2026-04-26T10:38:24Z</time>
      </trkpt>
      <trkpt lat="59.04115333" lon="29.96151167">
        <ele>94</ele>
        <time>2026-04-26T10:38:34Z</time>
      </trkpt>
      <trkpt lat="59.04112167" lon="29.96132333">
        <ele>93.2</ele>
        <time>2026-04-26T10:38:44Z</time>
      </trkpt>
      <trkpt lat="59.04108667" lon="29.961155">
        <ele>91.5</ele>
        <time>2026-04-26T10:38:54Z</time>
      </trkpt>
      <trkpt lat="59.04105333" lon="29.96099167">
        <ele>88.8</ele>
        <time>2026-04-26T10:39:04Z</time>
      </trkpt>
      <trkpt lat="59.041" lon="29.96082167">
        <ele>88.2</ele>
        <time>2026-04-26T10:39:13Z</time>
      </trkpt>
      <trkpt lat="59.040995" lon="29.96063">
        <ele>89.6</ele>
        <time>2026-04-26T10:39:20Z</time>
      </trkpt>
      <trkpt lat="59.04098833" lon="29.96045333">
        <ele>90.2</ele>
        <time>2026-04-26T10:39:29Z</time>
      </trkpt>
      <trkpt lat="59.04096333" lon="29.96028">
        <ele>91.8</ele>
        <time>2026-04-26T10:39:39Z</time>
      </trkpt>
      <trkpt lat="59.04094333" lon="29.96011">
        <ele>93.4</ele>
        <time>2026-04-26T10:39:47Z</time>
      </trkpt>
      <trkpt lat="59.04089333" lon="29.95995">
        <ele>94.1</ele>
        <time>2026-04-26T10:39:55Z</time>
      </trkpt>
      <trkpt lat="59.04086167" lon="29.95978">
        <ele>94.4</ele>
        <time>2026-04-26T10:40:06Z</time>
      </trkpt>
      <trkpt lat="59.04082167" lon="29.95961167">
        <ele>92.1</ele>
        <time>2026-04-26T10:40:17Z</time>
      </trkpt>
      <trkpt lat="59.04086333" lon="29.95944667">
        <ele>91.9</ele>
        <time>2026-04-26T10:40:26Z</time>
      </trkpt>
      <trkpt lat="59.04084" lon="29.959275">
        <ele>90.7</ele>
        <time>2026-04-26T10:40:36Z</time>
      </trkpt>
      <trkpt lat="59.04080667" lon="29.95910667">
        <ele>88.2</ele>
        <time>2026-04-26T10:40:46Z</time>
      </trkpt>
      <trkpt lat="59.04085167" lon="29.95894833">
        <ele>88.1</ele>
        <time>2026-04-26T10:40:55Z</time>
      </trkpt>
      <trkpt lat="59.040825" lon="29.95878">
        <ele>87.5</ele>
        <time>2026-04-26T10:41:07Z</time>
      </trkpt>
      <trkpt lat="59.040915" lon="29.95869667">
        <ele>88</ele>
        <time>2026-04-26T10:41:31Z</time>
      </trkpt>
      <trkpt lat="59.04098333" lon="29.95857833">
        <ele>95.8</ele>
        <time>2026-04-26T10:42:25Z</time>
      </trkpt>
      <trkpt lat="59.04098167" lon="29.95839667">
        <ele>96.8</ele>
        <time>2026-04-26T10:43:08Z</time>
      </trkpt>
      <trkpt lat="59.041065" lon="29.95829333">
        <ele>97.7</ele>
        <time>2026-04-26T10:43:23Z</time>
      </trkpt>
      <trkpt lat="59.04115167" lon="29.958235">
        <ele>95.8</ele>
        <time>2026-04-26T10:43:35Z</time>
      </trkpt>
      <trkpt lat="59.04123667" lon="29.95814333">
        <ele>94.8</ele>
        <time>2026-04-26T10:43:48Z</time>
      </trkpt>
      <trkpt lat="59.04129833" lon="29.95801">
        <ele>92.7</ele>
        <time>2026-04-26T10:44:00Z</time>
      </trkpt>
      <trkpt lat="59.04130333" lon="29.958185">
        <ele>92.2</ele>
        <time>2026-04-26T10:44:17Z</time>
      </trkpt>
      <trkpt lat="59.04133167" lon="29.958355">
        <ele>92.6</ele>
        <time>2026-04-26T10:44:26Z</time>
      </trkpt>
      <trkpt lat="59.04139333" lon="29.95848833">
        <ele>93.9</ele>
        <time>2026-04-26T10:44:37Z</time>
      </trkpt>
      <trkpt lat="59.04147" lon="29.95858667">
        <ele>93.4</ele>
        <time>2026-04-26T10:44:51Z</time>
      </trkpt>
      <trkpt lat="59.041495" lon="29.95840667">
        <ele>88.8</ele>
        <time>2026-04-26T10:45:24Z</time>
      </trkpt>
      <trkpt lat="59.04151" lon="29.95822333">
        <ele>90.3</ele>
        <time>2026-04-26T10:45:37Z</time>
      </trkpt>
      <trkpt lat="59.04155667" lon="29.95807">
        <ele>90.3</ele>
        <time>2026-04-26T10:45:50Z</time>
      </trkpt>
      <trkpt lat="59.04159" lon="29.957905">
        <ele>89.9</ele>
        <time>2026-04-26T10:46:02Z</time>
      </trkpt>
      <trkpt lat="59.04168333" lon="29.95783167">
        <ele>89.7</ele>
        <time>2026-04-26T10:46:09Z</time>
      </trkpt>
      <trkpt lat="59.04177167" lon="29.95779">
        <ele>90.1</ele>
        <time>2026-04-26T10:46:19Z</time>
      </trkpt>
      <trkpt lat="59.04185667" lon="29.95786333">
        <ele>88.6</ele>
        <time>2026-04-26T10:46:32Z</time>
      </trkpt>
      <trkpt lat="59.04195167" lon="29.95785667">
        <ele>88.7</ele>
        <time>2026-04-26T10:46:45Z</time>
      </trkpt>
      <trkpt lat="59.04204667" lon="29.95791833">
        <ele>89.3</ele>
        <time>2026-04-26T10:46:56Z</time>
      </trkpt>
      <trkpt lat="59.04214833" lon="29.95791667">
        <ele>89.7</ele>
        <time>2026-04-26T10:47:04Z</time>
      </trkpt>
      <trkpt lat="59.04224" lon="29.95795333">
        <ele>89.8</ele>
        <time>2026-04-26T10:47:14Z</time>
      </trkpt>
      <trkpt lat="59.04233667" lon="29.95800667">
        <ele>88.5</ele>
        <time>2026-04-26T10:47:24Z</time>
      </trkpt>
      <trkpt lat="59.04242667" lon="29.95804833">
        <ele>86.7</ele>
        <time>2026-04-26T10:47:33Z</time>
      </trkpt>
      <trkpt lat="59.04252333" lon="29.95810167">
        <ele>87.1</ele>
        <time>2026-04-26T10:47:46Z</time>
      </trkpt>
      <trkpt lat="59.04261833" lon="29.95810833">
        <ele>88.1</ele>
        <time>2026-04-26T10:47:54Z</time>
      </trkpt>
      <trkpt lat="59.04271" lon="29.95813833">
        <ele>89.4</ele>
        <time>2026-04-26T10:48:03Z</time>
      </trkpt>
      <trkpt lat="59.04280833" lon="29.958135">
        <ele>89.4</ele>
        <time>2026-04-26T10:48:09Z</time>
      </trkpt>
      <trkpt lat="59.042905" lon="29.95816667">
        <ele>89.5</ele>
        <time>2026-04-26T10:48:17Z</time>
      </trkpt>
      <trkpt lat="59.04299167" lon="29.95823833">
        <ele>91.1</ele>
        <time>2026-04-26T10:48:30Z</time>
      </trkpt>
      <trkpt lat="59.043085" lon="29.95827667">
        <ele>91</ele>
        <time>2026-04-26T10:48:39Z</time>
      </trkpt>
      <trkpt lat="59.04315333" lon="29.958405">
        <ele>91.8</ele>
        <time>2026-04-26T10:48:58Z</time>
      </trkpt>
      <trkpt lat="59.04324833" lon="29.95847333">
        <ele>90.8</ele>
        <time>2026-04-26T10:49:10Z</time>
      </trkpt>
      <trkpt lat="59.04335333" lon="29.95851167">
        <ele>92.5</ele>
        <time>2026-04-26T10:49:17Z</time>
      </trkpt>
      <trkpt lat="59.04346167" lon="29.95851833">
        <ele>94</ele>
        <time>2026-04-26T10:49:26Z</time>
      </trkpt>
      <trkpt lat="59.043555" lon="29.95846833">
        <ele>88.8</ele>
        <time>2026-04-26T10:49:44Z</time>
      </trkpt>
      <trkpt lat="59.043655" lon="29.95848167">
        <ele>86.9</ele>
        <time>2026-04-26T10:49:56Z</time>
      </trkpt>
      <trkpt lat="59.043745" lon="29.95847833">
        <ele>85.6</ele>
        <time>2026-04-26T10:50:03Z</time>
      </trkpt>
      <trkpt lat="59.04384167" lon="29.95850333">
        <ele>90</ele>
        <time>2026-04-26T10:50:32Z</time>
      </trkpt>
      <trkpt lat="59.04393833" lon="29.95852667">
        <ele>88.7</ele>
        <time>2026-04-26T10:50:42Z</time>
      </trkpt>
      <trkpt lat="59.04403167" lon="29.95853">
        <ele>88.9</ele>
        <time>2026-04-26T10:50:51Z</time>
      </trkpt>
      <trkpt lat="59.04412" lon="29.95859">
        <ele>83.8</ele>
        <time>2026-04-26T10:51:04Z</time>
      </trkpt>
      <trkpt lat="59.04421167" lon="29.95861667">
        <ele>83.5</ele>
        <time>2026-04-26T10:51:13Z</time>
      </trkpt>
      <trkpt lat="59.04435167" lon="29.95866333">
        <ele>82.7</ele>
        <time>2026-04-26T10:51:28Z</time>
      </trkpt>
      <trkpt lat="59.04443333" lon="29.95873667">
        <ele>81.2</ele>
        <time>2026-04-26T10:51:37Z</time>
      </trkpt>
      <trkpt lat="59.04452333" lon="29.95873167">
        <ele>82.2</ele>
        <time>2026-04-26T10:51:43Z</time>
      </trkpt>
      <trkpt lat="59.04461667" lon="29.9588">
        <ele>84</ele>
        <time>2026-04-26T10:51:51Z</time>
      </trkpt>
      <trkpt lat="59.044705" lon="29.95885667">
        <ele>83.8</ele>
        <time>2026-04-26T10:52:00Z</time>
      </trkpt>
      <trkpt lat="59.04480167" lon="29.95887">
        <ele>82.1</ele>
        <time>2026-04-26T10:52:09Z</time>
      </trkpt>
      <trkpt lat="59.0449" lon="29.958895">
        <ele>81.1</ele>
        <time>2026-04-26T10:52:21Z</time>
      </trkpt>
      <trkpt lat="59.04498333" lon="29.95898333">
        <ele>79.3</ele>
        <time>2026-04-26T10:52:36Z</time>
      </trkpt>
      <trkpt lat="59.04507667" lon="29.95904333">
        <ele>80.1</ele>
        <time>2026-04-26T10:52:50Z</time>
      </trkpt>
      <trkpt lat="59.04517" lon="29.95904333">
        <ele>84.2</ele>
        <time>2026-04-26T10:52:57Z</time>
      </trkpt>
      <trkpt lat="59.045265" lon="29.95904833">
        <ele>85.7</ele>
        <time>2026-04-26T10:53:06Z</time>
      </trkpt>
      <trkpt lat="59.04535667" lon="29.95905167">
        <ele>85.7</ele>
        <time>2026-04-26T10:53:18Z</time>
      </trkpt>
      <trkpt lat="59.04545" lon="29.95904">
        <ele>86.4</ele>
        <time>2026-04-26T10:53:27Z</time>
      </trkpt>
      <trkpt lat="59.04554667" lon="29.95907333">
        <ele>86.2</ele>
        <time>2026-04-26T10:53:40Z</time>
      </trkpt>
      <trkpt lat="59.04564667" lon="29.95910167">
        <ele>85.3</ele>
        <time>2026-04-26T10:53:47Z</time>
      </trkpt>
      <trkpt lat="59.04574167" lon="29.95911333">
        <ele>86</ele>
        <time>2026-04-26T10:53:58Z</time>
      </trkpt>
      <trkpt lat="59.04582833" lon="29.95916667">
        <ele>85</ele>
        <time>2026-04-26T10:54:08Z</time>
      </trkpt>
      <trkpt lat="59.045915" lon="29.95923333">
        <ele>84</ele>
        <time>2026-04-26T10:54:19Z</time>
      </trkpt>
      <trkpt lat="59.04600667" lon="29.95925">
        <ele>83.9</ele>
        <time>2026-04-26T10:54:30Z</time>
      </trkpt>
      <trkpt lat="59.04610833" lon="29.95927333">
        <ele>84</ele>
        <time>2026-04-26T10:54:38Z</time>
      </trkpt>
      <trkpt lat="59.04619833" lon="29.95932167">
        <ele>84.9</ele>
        <time>2026-04-26T10:54:48Z</time>
      </trkpt>
      <trkpt lat="59.04629" lon="29.959335">
        <ele>86.3</ele>
        <time>2026-04-26T10:54:56Z</time>
      </trkpt>
      <trkpt lat="59.04636833" lon="29.95942333">
        <ele>87.5</ele>
        <time>2026-04-26T10:55:08Z</time>
      </trkpt>
      <trkpt lat="59.04646" lon="29.95942667">
        <ele>86.3</ele>
        <time>2026-04-26T10:55:20Z</time>
      </trkpt>
      <trkpt lat="59.04656167" lon="29.95941">
        <ele>86.6</ele>
        <time>2026-04-26T10:55:27Z</time>
      </trkpt>
      <trkpt lat="59.04665667" lon="29.95944667">
        <ele>87.8</ele>
        <time>2026-04-26T10:55:37Z</time>
      </trkpt>
      <trkpt lat="59.04675" lon="29.95952">
        <ele>88</ele>
        <time>2026-04-26T10:55:49Z</time>
      </trkpt>
      <trkpt lat="59.046835" lon="29.95959333">
        <ele>87.1</ele>
        <time>2026-04-26T10:56:01Z</time>
      </trkpt>
      <trkpt lat="59.04692167" lon="29.95965833">
        <ele>86.9</ele>
        <time>2026-04-26T10:56:10Z</time>
      </trkpt>
      <trkpt lat="59.04700833" lon="29.95970667">
        <ele>86.2</ele>
        <time>2026-04-26T10:56:18Z</time>
      </trkpt>
      <trkpt lat="59.04710833" lon="29.95972">
        <ele>85.3</ele>
        <time>2026-04-26T10:56:28Z</time>
      </trkpt>
      <trkpt lat="59.04719667" lon="29.95975167">
        <ele>86.4</ele>
        <time>2026-04-26T10:56:36Z</time>
      </trkpt>
      <trkpt lat="59.04729" lon="29.95973167">
        <ele>87.4</ele>
        <time>2026-04-26T10:56:44Z</time>
      </trkpt>
      <trkpt lat="59.04738333" lon="29.95978667">
        <ele>87.1</ele>
        <time>2026-04-26T10:56:55Z</time>
      </trkpt>
      <trkpt lat="59.04747333" lon="29.95986">
        <ele>86.1</ele>
        <time>2026-04-26T10:57:05Z</time>
      </trkpt>
      <trkpt lat="59.047565" lon="29.95988333">
        <ele>86.7</ele>
        <time>2026-04-26T10:57:14Z</time>
      </trkpt>
      <trkpt lat="59.04766167" lon="29.95989">
        <ele>87.9</ele>
        <time>2026-04-26T10:57:33Z</time>
      </trkpt>
      <trkpt lat="59.04775333" lon="29.95989">
        <ele>88</ele>
        <time>2026-04-26T10:57:42Z</time>
      </trkpt>
      <trkpt lat="59.04784167" lon="29.95993667">
        <ele>84.8</ele>
        <time>2026-04-26T10:57:54Z</time>
      </trkpt>
      <trkpt lat="59.04794" lon="29.95998">
        <ele>81.9</ele>
        <time>2026-04-26T10:58:02Z</time>
      </trkpt>
      <trkpt lat="59.04803667" lon="29.95998333">
        <ele>79.6</ele>
        <time>2026-04-26T10:58:11Z</time>
      </trkpt>
      <trkpt lat="59.04812833" lon="29.95997">
        <ele>90.5</ele>
        <time>2026-04-26T10:58:32Z</time>
      </trkpt>
      <trkpt lat="59.04822333" lon="29.96005">
        <ele>87.2</ele>
        <time>2026-04-26T10:58:45Z</time>
      </trkpt>
      <trkpt lat="59.048315" lon="29.96009">
        <ele>84.7</ele>
        <time>2026-04-26T10:58:52Z</time>
      </trkpt>
      <trkpt lat="59.04840667" lon="29.96011333">
        <ele>83.6</ele>
        <time>2026-04-26T10:59:01Z</time>
      </trkpt>
      <trkpt lat="59.04849667" lon="29.96015167">
        <ele>82.3</ele>
        <time>2026-04-26T10:59:09Z</time>
      </trkpt>
      <trkpt lat="59.04859" lon="29.96020667">
        <ele>81.8</ele>
        <time>2026-04-26T10:59:17Z</time>
      </trkpt>
      <trkpt lat="59.04867167" lon="29.960285">
        <ele>79</ele>
        <time>2026-04-26T10:59:26Z</time>
      </trkpt>
      <trkpt lat="59.048775" lon="29.96035">
        <ele>76.2</ele>
        <time>2026-04-26T10:59:46Z</time>
      </trkpt>
      <trkpt lat="59.04886667" lon="29.96041667">
        <ele>76.8</ele>
        <time>2026-04-26T10:59:55Z</time>
      </trkpt>
      <trkpt lat="59.04895833" lon="29.96047333">
        <ele>76.6</ele>
        <time>2026-04-26T11:00:02Z</time>
      </trkpt>
      <trkpt lat="59.04904333" lon="29.96056667">
        <ele>78.3</ele>
        <time>2026-04-26T11:00:10Z</time>
      </trkpt>
      <trkpt lat="59.04913333" lon="29.96054833">
        <ele>77.7</ele>
        <time>2026-04-26T11:00:24Z</time>
      </trkpt>
      <trkpt lat="59.04922" lon="29.960605">
        <ele>77.6</ele>
        <time>2026-04-26T11:00:34Z</time>
      </trkpt>
      <trkpt lat="59.04931333" lon="29.96063667">
        <ele>80.8</ele>
        <time>2026-04-26T11:00:48Z</time>
      </trkpt>
      <trkpt lat="59.04940833" lon="29.960595">
        <ele>81.5</ele>
        <time>2026-04-26T11:00:59Z</time>
      </trkpt>
      <trkpt lat="59.04949833" lon="29.96053833">
        <ele>78.8</ele>
        <time>2026-04-26T11:01:14Z</time>
      </trkpt>
      <trkpt lat="59.04959333" lon="29.960585">
        <ele>79</ele>
        <time>2026-04-26T11:01:21Z</time>
      </trkpt>
      <trkpt lat="59.04968333" lon="29.96059333">
        <ele>80.1</ele>
        <time>2026-04-26T11:01:29Z</time>
      </trkpt>
      <trkpt lat="59.04977833" lon="29.96058">
        <ele>81.3</ele>
        <time>2026-04-26T11:01:36Z</time>
      </trkpt>
      <trkpt lat="59.049875" lon="29.96054167">
        <ele>83.9</ele>
        <time>2026-04-26T11:01:44Z</time>
      </trkpt>
      <trkpt lat="59.04996833" lon="29.96061333">
        <ele>84</ele>
        <time>2026-04-26T11:01:54Z</time>
      </trkpt>
      <trkpt lat="59.050055" lon="29.96066">
        <ele>83.3</ele>
        <time>2026-04-26T11:02:07Z</time>
      </trkpt>
      <trkpt lat="59.050145" lon="29.96068833">
        <ele>81.5</ele>
        <time>2026-04-26T11:02:23Z</time>
      </trkpt>
      <trkpt lat="59.05022833" lon="29.96076">
        <ele>81.8</ele>
        <time>2026-04-26T11:02:35Z</time>
      </trkpt>
      <trkpt lat="59.05032167" lon="29.96079">
        <ele>82</ele>
        <time>2026-04-26T11:02:44Z</time>
      </trkpt>
      <trkpt lat="59.05041667" lon="29.960785">
        <ele>83.3</ele>
        <time>2026-04-26T11:02:51Z</time>
      </trkpt>
      <trkpt lat="59.05050167" lon="29.960845">
        <ele>83.6</ele>
        <time>2026-04-26T11:03:00Z</time>
      </trkpt>
      <trkpt lat="59.05059667" lon="29.96081167">
        <ele>85.8</ele>
        <time>2026-04-26T11:03:09Z</time>
      </trkpt>
      <trkpt lat="59.05068667" lon="29.96083167">
        <ele>86.9</ele>
        <time>2026-04-26T11:03:21Z</time>
      </trkpt>
      <trkpt lat="59.05077333" lon="29.96089667">
        <ele>85.8</ele>
        <time>2026-04-26T11:03:29Z</time>
      </trkpt>
      <trkpt lat="59.05086167" lon="29.96093833">
        <ele>86.4</ele>
        <time>2026-04-26T11:03:36Z</time>
      </trkpt>
      <trkpt lat="59.050945" lon="29.96100333">
        <ele>85.6</ele>
        <time>2026-04-26T11:03:45Z</time>
      </trkpt>
      <trkpt lat="59.05103" lon="29.9611">
        <ele>86.9</ele>
        <time>2026-04-26T11:03:55Z</time>
      </trkpt>
      <trkpt lat="59.05112667" lon="29.96113833">
        <ele>88.6</ele>
        <time>2026-04-26T11:04:05Z</time>
      </trkpt>
      <trkpt lat="59.05122667" lon="29.96114833">
        <ele>88.7</ele>
        <time>2026-04-26T11:04:14Z</time>
      </trkpt>
      <trkpt lat="59.05131667" lon="29.961155">
        <ele>87</ele>
        <time>2026-04-26T11:04:22Z</time>
      </trkpt>
      <trkpt lat="59.05140333" lon="29.96120333">
        <ele>87.6</ele>
        <time>2026-04-26T11:04:32Z</time>
      </trkpt>
      <trkpt lat="59.05149833" lon="29.96119333">
        <ele>87.5</ele>
        <time>2026-04-26T11:04:38Z</time>
      </trkpt>
      <trkpt lat="59.05159" lon="29.96125833">
        <ele>86.7</ele>
        <time>2026-04-26T11:04:47Z</time>
      </trkpt>
      <trkpt lat="59.051685" lon="29.96130833">
        <ele>86.7</ele>
        <time>2026-04-26T11:04:58Z</time>
      </trkpt>
      <trkpt lat="59.05177" lon="29.96138667">
        <ele>87</ele>
        <time>2026-04-26T11:05:08Z</time>
      </trkpt>
      <trkpt lat="59.05185167" lon="29.96130167">
        <ele>87</ele>
        <time>2026-04-26T11:05:23Z</time>
      </trkpt>
      <trkpt lat="59.05194167" lon="29.96127667">
        <ele>83.5</ele>
        <time>2026-04-26T11:05:34Z</time>
      </trkpt>
      <trkpt lat="59.05203" lon="29.96135333">
        <ele>81</ele>
        <time>2026-04-26T11:05:47Z</time>
      </trkpt>
      <trkpt lat="59.05212" lon="29.96140333">
        <ele>81.1</ele>
        <time>2026-04-26T11:05:54Z</time>
      </trkpt>
      <trkpt lat="59.05221167" lon="29.96142833">
        <ele>82.2</ele>
        <time>2026-04-26T11:06:03Z</time>
      </trkpt>
      <trkpt lat="59.0523" lon="29.961475">
        <ele>83</ele>
        <time>2026-04-26T11:06:19Z</time>
      </trkpt>
      <trkpt lat="59.05239833" lon="29.96147167">
        <ele>83.3</ele>
        <time>2026-04-26T11:06:26Z</time>
      </trkpt>
      <trkpt lat="59.05248833" lon="29.961455">
        <ele>86.3</ele>
        <time>2026-04-26T11:06:35Z</time>
      </trkpt>
      <trkpt lat="59.05258" lon="29.96150333">
        <ele>88.2</ele>
        <time>2026-04-26T11:06:49Z</time>
      </trkpt>
      <trkpt lat="59.052675" lon="29.96156167">
        <ele>89</ele>
        <time>2026-04-26T11:06:58Z</time>
      </trkpt>
      <trkpt lat="59.052775" lon="29.96160333">
        <ele>87.8</ele>
        <time>2026-04-26T11:07:05Z</time>
      </trkpt>
      <trkpt lat="59.052875" lon="29.9616">
        <ele>86.2</ele>
        <time>2026-04-26T11:07:14Z</time>
      </trkpt>
      <trkpt lat="59.05296" lon="29.961685">
        <ele>85</ele>
        <time>2026-04-26T11:07:24Z</time>
      </trkpt>
      <trkpt lat="59.05305167" lon="29.96169333">
        <ele>83.3</ele>
        <time>2026-04-26T11:07:35Z</time>
      </trkpt>
      <trkpt lat="59.05314667" lon="29.961725">
        <ele>80.4</ele>
        <time>2026-04-26T11:07:48Z</time>
      </trkpt>
      <trkpt lat="59.05323667" lon="29.96173">
        <ele>79.9</ele>
        <time>2026-04-26T11:07:54Z</time>
      </trkpt>
      <trkpt lat="59.05333833" lon="29.96176167">
        <ele>78.9</ele>
        <time>2026-04-26T11:08:02Z</time>
      </trkpt>
      <trkpt lat="59.05342333" lon="29.96182833">
        <ele>76.8</ele>
        <time>2026-04-26T11:08:10Z</time>
      </trkpt>
      <trkpt lat="59.053525" lon="29.96185667">
        <ele>74.2</ele>
        <time>2026-04-26T11:08:21Z</time>
      </trkpt>
      <trkpt lat="59.05362167" lon="29.96187167">
        <ele>73.6</ele>
        <time>2026-04-26T11:08:28Z</time>
      </trkpt>
      <trkpt lat="59.05371667" lon="29.96188833">
        <ele>75.1</ele>
        <time>2026-04-26T11:08:37Z</time>
      </trkpt>
      <trkpt lat="59.05381333" lon="29.961915">
        <ele>76.7</ele>
        <time>2026-04-26T11:08:42Z</time>
      </trkpt>
      <trkpt lat="59.05390333" lon="29.96195833">
        <ele>79</ele>
        <time>2026-04-26T11:08:50Z</time>
      </trkpt>
      <trkpt lat="59.05399667" lon="29.96202333">
        <ele>82</ele>
        <time>2026-04-26T11:08:59Z</time>
      </trkpt>
      <trkpt lat="59.05408667" lon="29.96193833">
        <ele>89.6</ele>
        <time>2026-04-26T11:09:17Z</time>
      </trkpt>
      <trkpt lat="59.05418333" lon="29.96195">
        <ele>90.2</ele>
        <time>2026-04-26T11:09:23Z</time>
      </trkpt>
      <trkpt lat="59.05428" lon="29.96199">
        <ele>91.1</ele>
        <time>2026-04-26T11:09:31Z</time>
      </trkpt>
      <trkpt lat="59.05436667" lon="29.96206667">
        <ele>90.8</ele>
        <time>2026-04-26T11:09:39Z</time>
      </trkpt>
      <trkpt lat="59.05446" lon="29.96213167">
        <ele>87.9</ele>
        <time>2026-04-26T11:09:49Z</time>
      </trkpt>
      <trkpt lat="59.05456333" lon="29.96215833">
        <ele>85.1</ele>
        <time>2026-04-26T11:09:58Z</time>
      </trkpt>
      <trkpt lat="59.054655" lon="29.96218833">
        <ele>84.2</ele>
        <time>2026-04-26T11:10:07Z</time>
      </trkpt>
      <trkpt lat="59.054745" lon="29.962185">
        <ele>85.5</ele>
        <time>2026-04-26T11:10:20Z</time>
      </trkpt>
      <trkpt lat="59.054835" lon="29.96216667">
        <ele>87.9</ele>
        <time>2026-04-26T11:10:35Z</time>
      </trkpt>
      <trkpt lat="59.05489667" lon="29.96230333">
        <ele>89.3</ele>
        <time>2026-04-26T11:10:47Z</time>
      </trkpt>
      <trkpt lat="59.05487833" lon="29.962485">
        <ele>89.1</ele>
        <time>2026-04-26T11:11:11Z</time>
      </trkpt>
      <trkpt lat="59.054925" lon="29.96252167">
        <ele>97.8</ele>
        <time>2026-04-26T11:13:12Z</time>
      </trkpt>
      <trkpt lat="59.05494833" lon="29.96253833">
        <ele>100.8</ele>
        <time>2026-04-26T11:15:34Z</time>
      </trkpt>
    </trkseg>
  </trk>
</gpx>